createdAt,value
2017-04-15T00:00:37.030Z,1006.7
2017-04-15T00:01:37.008Z,1006.68
2017-04-15T00:02:36.997Z,1006.7
2017-04-15T00:03:36.970Z,1006.65
2017-04-15T00:04:36.943Z,1006.62
2017-04-15T00:05:36.922Z,1006.63
2017-04-15T00:06:37.244Z,1006.61
2017-04-15T00:07:36.881Z,1006.57
2017-04-15T00:08:36.860Z,1006.6
2017-04-15T00:09:36.883Z,1006.54
2017-04-15T00:10:36.816Z,1006.54
2017-04-15T00:11:36.797Z,1006.54
2017-04-15T00:12:36.779Z,1006.51
2017-04-15T00:13:36.754Z,1006.5
2017-04-15T00:14:36.733Z,1006.49
2017-04-15T00:15:36.786Z,1006.48
2017-04-15T00:16:36.692Z,1006.43
2017-04-15T00:17:36.672Z,1006.41
2017-04-15T00:18:36.655Z,1006.38
2017-04-15T00:19:36.631Z,1006.35
2017-04-15T00:20:36.608Z,1006.34
2017-04-15T00:21:36.589Z,1006.32
2017-04-15T00:22:36.563Z,1006.32
2017-04-15T00:23:36.543Z,1006.31
2017-04-15T00:24:36.521Z,1006.31
2017-04-15T00:25:36.499Z,1006.31
2017-04-15T00:26:36.486Z,1006.3
2017-04-15T00:27:36.461Z,1006.32
2017-04-15T00:28:36.440Z,1006.33
2017-04-15T00:29:36.420Z,1006.31
2017-04-15T00:30:36.400Z,1006.3
2017-04-15T00:31:36.376Z,1006.29
2017-04-15T00:32:36.353Z,1006.29
2017-04-15T00:33:36.335Z,1006.25
2017-04-15T00:34:36.314Z,1006.2
2017-04-15T00:35:36.291Z,1006.21
2017-04-15T00:36:36.273Z,1006.2
2017-04-15T00:37:36.251Z,1006.22
2017-04-15T00:38:36.229Z,1006.2
2017-04-15T00:39:36.212Z,1006.18
2017-04-15T00:40:36.190Z,1006.14
2017-04-15T00:41:36.165Z,1006.13
2017-04-15T00:42:36.145Z,1006.11
2017-04-15T00:43:36.123Z,1006.11
2017-04-15T00:44:36.103Z,1006.15
2017-04-15T00:45:36.092Z,1006.08
2017-04-15T00:46:36.059Z,1006.09
2017-04-15T00:47:36.041Z,1006.07
2017-04-15T00:48:36.021Z,1006.04
2017-04-15T00:49:35.998Z,1006.02
2017-04-15T00:50:35.975Z,1006.04
2017-04-15T00:51:35.955Z,1005.97
2017-04-15T00:52:35.933Z,1005.93
2017-04-15T00:53:35.912Z,1005.93
2017-04-15T00:54:35.895Z,1005.93
2017-04-15T00:55:35.870Z,1005.92
2017-04-15T00:56:35.848Z,1005.91
2017-04-15T00:57:35.832Z,1005.88
2017-04-15T00:58:35.809Z,1005.87
2017-04-15T00:59:35.786Z,1005.85
2017-04-15T01:00:35.762Z,1005.86
2017-04-15T01:01:35.745Z,1005.83
2017-04-15T01:02:35.723Z,1005.8
2017-04-15T01:03:35.703Z,1005.84
2017-04-15T01:04:35.682Z,1005.8
2017-04-15T01:05:35.663Z,1005.76
2017-04-15T01:06:35.642Z,1005.73
2017-04-15T01:07:35.617Z,1005.68
2017-04-15T01:08:35.601Z,1005.7
2017-04-15T01:09:35.580Z,1005.72
2017-04-15T01:10:35.552Z,1005.7
2017-04-15T01:11:35.536Z,1005.68
2017-04-15T01:12:35.512Z,1005.71
2017-04-15T01:13:35.493Z,1005.71
2017-04-15T01:14:35.469Z,1005.69
2017-04-15T01:15:35.453Z,1005.71
2017-04-15T01:16:35.427Z,1005.69
2017-04-15T01:17:35.463Z,1005.67
2017-04-15T01:18:35.387Z,1005.66
2017-04-15T01:19:35.422Z,1005.67
2017-04-15T01:20:35.351Z,1005.69
2017-04-15T01:21:35.325Z,1005.69
2017-04-15T01:22:35.300Z,1005.71
2017-04-15T01:23:35.285Z,1005.71
2017-04-15T01:24:35.259Z,1005.66
2017-04-15T01:25:35.243Z,1005.69
2017-04-15T01:26:35.222Z,1005.66
2017-04-15T01:27:35.200Z,1005.67
2017-04-15T01:28:35.178Z,1005.6
2017-04-15T01:29:35.214Z,1005.66
2017-04-15T01:30:35.132Z,1005.64
2017-04-15T01:31:35.163Z,1005.68
2017-04-15T01:32:35.092Z,1005.65
2017-04-15T01:33:35.073Z,1005.66
2017-04-15T01:34:35.050Z,1005.64
2017-04-15T01:35:35.033Z,1005.62
2017-04-15T01:36:35.011Z,1005.59
2017-04-15T01:37:34.989Z,1005.59
2017-04-15T01:38:34.973Z,1005.63
2017-04-15T01:39:35.001Z,1005.58
2017-04-15T01:40:34.922Z,1005.67
2017-04-15T01:41:34.913Z,1005.58
2017-04-15T01:42:34.882Z,1005.6
2017-04-15T01:43:34.862Z,1005.65
2017-04-15T01:44:34.843Z,1005.58
2017-04-15T01:45:34.823Z,1005.61
2017-04-15T01:46:34.801Z,1005.65
2017-04-15T01:47:34.781Z,1005.65
2017-04-15T01:48:34.757Z,1005.67
2017-04-15T01:49:34.787Z,1005.69
2017-04-15T01:50:34.711Z,1005.62
2017-04-15T01:51:34.742Z,1005.62
2017-04-15T01:52:34.671Z,1005.61
2017-04-15T01:53:34.655Z,1005.56
2017-04-15T01:54:34.634Z,1005.53
2017-04-15T01:55:34.710Z,1005.5
2017-04-15T01:56:34.592Z,1005.48
2017-04-15T01:57:34.573Z,1005.47
2017-04-15T01:58:34.553Z,1005.45
2017-04-15T01:59:34.588Z,1005.5
2017-04-15T02:00:34.501Z,1005.45
2017-04-15T02:01:34.482Z,1005.42
2017-04-15T02:02:34.462Z,1005.41
2017-04-15T02:03:34.442Z,1005.44
2017-04-15T02:04:34.417Z,1005.35
2017-04-15T02:05:34.396Z,1005.4
2017-04-15T02:06:34.378Z,1005.38
2017-04-15T02:07:34.359Z,1005.4
2017-04-15T02:08:34.332Z,1005.34
2017-04-15T02:09:34.311Z,1005.34
2017-04-15T02:10:34.291Z,1005.33
2017-04-15T02:11:34.271Z,1005.34
2017-04-15T02:12:34.253Z,1005.35
2017-04-15T02:13:34.230Z,1005.34
2017-04-15T02:14:34.211Z,1005.28
2017-04-15T02:15:34.186Z,1005.29
2017-04-15T02:16:34.170Z,1005.31
2017-04-15T02:17:34.152Z,1005.3
2017-04-15T02:18:34.121Z,1005.28
2017-04-15T02:19:34.101Z,1005.33
2017-04-15T02:20:34.082Z,1005.29
2017-04-15T02:21:34.063Z,1005.32
2017-04-15T02:22:34.040Z,1005.31
2017-04-15T02:23:34.018Z,1005.28
2017-04-15T02:24:34.001Z,1005.33
2017-04-15T02:25:33.979Z,1005.28
2017-04-15T02:26:33.962Z,1005.33
2017-04-15T02:27:33.939Z,1005.3
2017-04-15T02:28:33.913Z,1005.28
2017-04-15T02:29:33.903Z,1005.26
2017-04-15T02:30:33.873Z,1005.25
2017-04-15T02:31:33.852Z,1005.25
2017-04-15T02:32:33.831Z,1005.2
2017-04-15T02:33:33.812Z,1005.21
2017-04-15T02:34:33.791Z,1005.2
2017-04-15T02:35:33.767Z,1005.2
2017-04-15T02:36:33.748Z,1005.19
2017-04-15T02:37:33.732Z,1005.17
2017-04-15T02:38:33.717Z,1005.19
2017-04-15T02:39:33.685Z,1005.23
2017-04-15T02:40:33.663Z,1005.17
2017-04-15T02:41:33.640Z,1005.18
2017-04-15T02:42:33.621Z,1005.14
2017-04-15T02:43:33.602Z,1005.12
2017-04-15T02:44:33.582Z,1005.14
2017-04-15T02:45:33.557Z,1005.13
2017-04-15T02:46:33.543Z,1005.1
2017-04-15T02:47:33.515Z,1005.05
2017-04-15T02:48:33.496Z,1005.01
2017-04-15T02:49:33.481Z,1005.04
2017-04-15T02:50:33.452Z,1005.01
2017-04-15T02:51:33.433Z,1005.04
2017-04-15T02:52:33.413Z,1005.02
2017-04-15T02:53:33.389Z,1004.96
2017-04-15T02:54:33.370Z,1004.97
2017-04-15T02:55:33.348Z,1004.97
2017-04-15T02:56:33.333Z,1004.95
2017-04-15T02:57:33.307Z,1004.94
2017-04-15T02:58:33.284Z,1004.98
2017-04-15T02:59:33.263Z,1004.94
2017-04-15T03:00:33.243Z,1004.89
2017-04-15T03:01:33.222Z,1004.89
2017-04-15T03:02:33.201Z,1004.91
2017-04-15T03:03:33.180Z,1004.85
2017-04-15T03:04:33.162Z,1004.85
2017-04-15T03:05:33.139Z,1004.87
2017-04-15T03:06:33.117Z,1004.76
2017-04-15T03:07:33.098Z,1004.83
2017-04-15T03:08:33.072Z,1004.84
2017-04-15T03:09:33.051Z,1004.82
2017-04-15T03:10:33.030Z,1004.83
2017-04-15T03:11:33.012Z,1004.78
2017-04-15T03:12:32.990Z,1004.81
2017-04-15T03:13:32.969Z,1004.82
2017-04-15T03:14:32.952Z,1004.78
2017-04-15T03:15:32.926Z,1004.78
2017-04-15T03:16:32.911Z,1004.77
2017-04-15T03:17:32.893Z,1004.76
2017-04-15T03:18:32.862Z,1004.71
2017-04-15T03:19:32.843Z,1004.69
2017-04-15T03:20:32.822Z,1004.68
2017-04-15T03:21:32.801Z,1004.67
2017-04-15T03:22:32.779Z,1004.64
2017-04-15T03:23:32.763Z,1004.62
2017-04-15T03:24:32.737Z,1004.59
2017-04-15T03:25:32.722Z,1004.61
2017-04-15T03:26:32.694Z,1004.6
2017-04-15T03:27:32.671Z,1004.61
2017-04-15T03:28:32.652Z,1004.62
2017-04-15T03:29:32.628Z,1004.56
2017-04-15T03:30:32.613Z,1004.52
2017-04-15T03:31:32.593Z,1004.52
2017-04-15T03:32:32.573Z,1004.51
2017-04-15T03:33:32.545Z,1004.48
2017-04-15T03:34:32.528Z,1004.51
2017-04-15T03:35:32.510Z,1004.47
2017-04-15T03:36:32.483Z,1004.53
2017-04-15T03:37:32.463Z,1004.54
2017-04-15T03:38:32.445Z,1004.52
2017-04-15T03:39:32.422Z,1004.6
2017-04-15T03:40:32.398Z,1004.61
2017-04-15T03:41:32.384Z,1004.57
2017-04-15T03:42:32.360Z,1004.56
2017-04-15T03:43:32.334Z,1004.51
2017-04-15T03:44:32.322Z,1004.49
2017-04-15T03:45:32.294Z,1004.48
2017-04-15T03:46:32.274Z,1004.48
2017-04-15T03:47:32.253Z,1004.47
2017-04-15T03:48:32.232Z,1004.43
2017-04-15T03:49:32.216Z,1004.43
2017-04-15T03:50:32.192Z,1004.45
2017-04-15T03:51:32.169Z,1004.43
2017-04-15T03:52:32.151Z,1004.48
2017-04-15T03:53:32.132Z,1004.42
2017-04-15T03:54:32.106Z,1004.49
2017-04-15T03:55:32.088Z,1004.39
2017-04-15T03:56:32.067Z,1004.38
2017-04-15T03:57:32.044Z,1004.37
2017-04-15T03:58:32.025Z,1004.38
2017-04-15T03:59:32.005Z,1004.41
2017-04-15T04:00:31.992Z,1004.4
2017-04-15T04:01:31.957Z,1004.37
2017-04-15T04:02:31.942Z,1004.36
2017-04-15T04:03:31.919Z,1004.35
2017-04-15T04:04:31.903Z,1004.36
2017-04-15T04:05:31.872Z,1004.3
2017-04-15T04:06:31.853Z,1004.36
2017-04-15T04:07:31.833Z,1004.34
2017-04-15T04:08:31.813Z,1004.36
2017-04-15T04:09:31.788Z,1004.28
2017-04-15T04:10:31.772Z,1004.33
2017-04-15T04:11:31.756Z,1004.29
2017-04-15T04:12:31.726Z,1004.28
2017-04-15T04:13:31.707Z,1004.28
2017-04-15T04:14:31.687Z,1004.25
2017-04-15T04:15:31.663Z,1004.3
2017-04-15T04:16:31.646Z,1004.31
2017-04-15T04:17:31.622Z,1004.24
2017-04-15T04:18:31.600Z,1004.22
2017-04-15T04:19:31.583Z,1004.21
2017-04-15T04:20:31.563Z,1004.23
2017-04-15T04:21:31.544Z,1004.24
2017-04-15T04:22:31.518Z,1004.18
2017-04-15T04:23:31.498Z,1004.22
2017-04-15T04:24:31.474Z,1004.22
2017-04-15T04:25:31.459Z,1004.23
2017-04-15T04:26:31.434Z,1004.27
2017-04-15T04:27:31.412Z,1004.23
2017-04-15T04:28:31.394Z,1004.26
2017-04-15T04:29:31.374Z,1004.25
2017-04-15T04:30:31.356Z,1004.23
2017-04-15T04:31:31.328Z,1004.23
2017-04-15T04:32:31.310Z,1004.28
2017-04-15T04:33:31.294Z,1004.29
2017-04-15T04:34:31.269Z,1004.2
2017-04-15T04:35:31.244Z,1004.23
2017-04-15T04:36:31.221Z,1004.22
2017-04-15T04:37:31.203Z,1004.22
2017-04-15T04:38:31.184Z,1004.2
2017-04-15T04:39:31.166Z,1004.16
2017-04-15T04:40:31.142Z,1004.12
2017-04-15T04:41:31.124Z,1004.12
2017-04-15T04:42:31.096Z,1004.13
2017-04-15T04:43:31.080Z,1004.17
2017-04-15T04:44:31.055Z,1004.15
2017-04-15T04:45:31.034Z,1004.15
2017-04-15T04:46:31.013Z,1004.13
2017-04-15T04:47:30.993Z,1004.11
2017-04-15T04:48:30.974Z,1004.05
2017-04-15T04:49:30.954Z,1004.11
2017-04-15T04:50:30.930Z,1004.11
2017-04-15T04:51:30.906Z,1004.14
2017-04-15T04:52:30.891Z,1004.08
2017-04-15T04:53:30.864Z,1004.08
2017-04-15T04:54:30.844Z,1004.12
2017-04-15T04:55:30.824Z,1004.1
2017-04-15T04:56:30.802Z,1004.11
2017-04-15T04:57:30.782Z,1004.08
2017-04-15T04:58:30.761Z,1004.14
2017-04-15T04:59:30.738Z,1004.1
2017-04-15T05:00:30.717Z,1004.05
2017-04-15T05:01:30.702Z,1004.07
2017-04-15T05:02:30.676Z,1004.08
2017-04-15T05:03:30.757Z,1004.03
2017-04-15T05:04:30.635Z,1004.15
2017-04-15T05:05:30.615Z,1004.12
2017-04-15T05:06:30.592Z,1004.18
2017-04-15T05:07:30.572Z,1004.18
2017-04-15T05:08:30.550Z,1004.05
2017-04-15T05:09:30.533Z,1004.25
2017-04-15T05:10:30.511Z,1004.09
2017-04-15T05:11:30.487Z,1004.05
2017-04-15T05:12:30.465Z,1004.12
2017-04-15T05:13:30.545Z,1004.1
2017-04-15T05:14:30.423Z,1004.1
2017-04-15T05:15:30.404Z,1004.12
2017-04-15T05:16:30.379Z,1004.13
2017-04-15T05:17:30.362Z,1004.12
2017-04-15T05:18:30.391Z,1004.16
2017-04-15T05:19:30.315Z,1004.13
2017-04-15T05:20:30.293Z,1004.16
2017-04-15T05:21:30.280Z,1004.13
2017-04-15T05:22:30.251Z,1004.12
2017-04-15T05:23:30.232Z,1004.12
2017-04-15T05:24:30.212Z,1004.14
2017-04-15T05:25:30.193Z,1004.15
2017-04-15T05:26:30.167Z,1004.1
2017-04-15T05:27:30.149Z,1004.18
2017-04-15T05:28:30.129Z,1004.15
2017-04-15T05:29:30.110Z,1004.16
2017-04-15T05:30:30.083Z,1004.25
2017-04-15T05:31:30.062Z,1004.25
2017-04-15T05:32:30.042Z,1004.21
2017-04-15T05:33:30.019Z,1004.28
2017-04-15T05:34:29.999Z,1004.24
2017-04-15T05:35:29.977Z,1004.23
2017-04-15T05:36:29.962Z,1004.27
2017-04-15T05:37:29.939Z,1004.23
2017-04-15T05:38:29.915Z,1004.27
2017-04-15T05:39:29.892Z,1004.23
2017-04-15T05:40:29.874Z,1004.3
2017-04-15T05:41:29.853Z,1004.31
2017-04-15T05:42:29.833Z,1004.19
2017-04-15T05:43:29.812Z,1004.15
2017-04-15T05:44:29.781Z,1004.29
2017-04-15T05:45:29.762Z,1004.24
2017-04-15T05:46:29.741Z,1004.26
2017-04-15T05:47:29.722Z,1004.25
2017-04-15T05:48:29.697Z,1004.25
2017-04-15T05:49:29.683Z,1004.24
2017-04-15T05:50:29.666Z,1004.25
2017-04-15T05:51:29.635Z,1004.22
2017-04-15T05:52:29.612Z,1004.27
2017-04-15T05:53:29.594Z,1004.3
2017-04-15T05:54:29.574Z,1004.28
2017-04-15T05:55:29.549Z,1004.29
2017-04-15T05:56:29.578Z,1004.38
2017-04-15T05:57:29.507Z,1004.3
2017-04-15T05:58:29.637Z,1004.27
2017-04-15T05:59:29.472Z,1004.26
2017-04-15T06:00:29.460Z,1004.25
2017-04-15T06:01:29.423Z,1004.3
2017-04-15T06:02:29.506Z,1004.33
2017-04-15T06:03:29.382Z,1004.34
2017-04-15T06:04:29.365Z,1004.37
2017-04-15T06:05:29.339Z,1004.33
2017-04-15T06:06:29.335Z,1004.37
2017-04-15T06:07:29.298Z,1004.36
2017-04-15T06:08:29.425Z,1004.41
2017-04-15T06:09:29.252Z,1004.4
2017-04-15T06:10:29.334Z,1004.43
2017-04-15T06:11:29.213Z,1004.36
2017-04-15T06:12:29.194Z,1004.37
2017-04-15T06:13:29.167Z,1004.4
2017-04-15T06:14:29.149Z,1004.45
2017-04-15T06:15:29.127Z,1004.44
2017-04-15T06:16:29.107Z,1004.44
2017-04-15T06:17:29.083Z,1004.51
2017-04-15T06:18:29.161Z,1004.42
2017-04-15T06:19:29.040Z,1004.45
2017-04-15T06:20:29.019Z,1004.51
2017-04-15T06:21:29.005Z,1004.41
2017-04-15T06:22:29.043Z,1004.43
2017-04-15T06:23:28.963Z,1004.43
2017-04-15T06:24:28.938Z,1004.42
2017-04-15T06:25:28.912Z,1004.46
2017-04-15T06:26:28.894Z,1004.49
2017-04-15T06:27:28.877Z,1004.48
2017-04-15T06:28:28.932Z,1004.45
2017-04-15T06:29:28.827Z,1004.56
2017-04-15T06:30:28.813Z,1004.44
2017-04-15T06:31:28.783Z,1004.48
2017-04-15T06:32:28.869Z,1004.52
2017-04-15T06:33:28.743Z,1004.51
2017-04-15T06:34:28.724Z,1004.54
2017-04-15T06:35:28.713Z,1004.49
2017-04-15T06:36:28.682Z,1004.55
2017-04-15T06:37:28.663Z,1004.54
2017-04-15T06:38:28.641Z,1004.49
2017-04-15T06:39:28.616Z,1004.57
2017-04-15T06:40:28.595Z,1004.59
2017-04-15T06:41:28.571Z,1004.53
2017-04-15T06:42:28.552Z,1004.54
2017-04-15T06:43:28.532Z,1004.58
2017-04-15T06:44:28.512Z,1004.61
2017-04-15T06:45:28.493Z,1004.49
2017-04-15T06:46:28.466Z,1004.59
2017-04-15T06:47:28.453Z,1004.5
2017-04-15T06:48:28.526Z,1004.55
2017-04-15T06:49:28.401Z,1004.58
2017-04-15T06:50:28.382Z,1004.53
2017-04-15T06:51:28.366Z,1004.52
2017-04-15T06:52:28.340Z,1004.54
2017-04-15T06:53:28.317Z,1004.55
2017-04-15T06:54:28.299Z,1004.54
2017-04-15T06:55:28.277Z,1004.53
2017-04-15T06:56:28.261Z,1004.62
2017-04-15T06:57:28.235Z,1004.6
2017-04-15T06:58:28.213Z,1004.58
2017-04-15T06:59:28.192Z,1004.6
2017-04-15T07:00:28.172Z,1004.59
2017-04-15T07:01:28.161Z,1004.63
2017-04-15T07:02:28.133Z,1004.66
2017-04-15T07:03:28.113Z,1004.64
2017-04-15T07:04:28.086Z,1004.62
2017-04-15T07:05:28.066Z,1004.7
2017-04-15T07:06:28.051Z,1004.69
2017-04-15T07:07:28.022Z,1004.62
2017-04-15T07:08:28.002Z,1004.7
2017-04-15T07:09:27.982Z,1004.63
2017-04-15T07:10:27.961Z,1004.68
2017-04-15T07:11:27.945Z,1004.72
2017-04-15T07:12:27.922Z,1004.67
2017-04-15T07:13:27.915Z,1004.69
2017-04-15T07:14:27.883Z,1004.74
2017-04-15T07:15:27.863Z,1004.75
2017-04-15T07:16:27.841Z,1004.75
2017-04-15T07:17:27.824Z,1004.71
2017-04-15T07:18:27.803Z,1004.79
2017-04-15T07:19:27.771Z,1004.8
2017-04-15T07:20:27.806Z,1004.78
2017-04-15T07:21:27.730Z,1004.78
2017-04-15T07:22:27.710Z,1004.77
2017-04-15T07:23:27.787Z,1004.8
2017-04-15T07:24:27.675Z,1004.75
2017-04-15T07:25:27.655Z,1004.79
2017-04-15T07:26:27.625Z,1004.78
2017-04-15T07:27:27.614Z,1004.8
2017-04-15T07:28:27.582Z,1004.79
2017-04-15T07:29:27.561Z,1004.83
2017-04-15T07:30:27.542Z,1004.87
2017-04-15T07:31:27.524Z,1004.82
2017-04-15T07:32:27.501Z,1004.82
2017-04-15T07:33:27.484Z,1004.85
2017-04-15T07:34:27.462Z,1004.84
2017-04-15T07:35:27.436Z,1004.85
2017-04-15T07:36:27.425Z,1004.86
2017-04-15T07:37:27.403Z,1004.8
2017-04-15T07:38:27.481Z,1004.85
2017-04-15T07:39:27.358Z,1004.82
2017-04-15T07:40:27.334Z,1004.86
2017-04-15T07:41:27.311Z,1004.87
2017-04-15T07:42:27.295Z,1004.89
2017-04-15T07:43:27.281Z,1004.89
2017-04-15T07:44:27.254Z,1004.95
2017-04-15T07:45:27.232Z,1004.94
2017-04-15T07:46:27.210Z,1004.92
2017-04-15T07:47:27.191Z,1004.93
2017-04-15T07:48:27.165Z,1004.96
2017-04-15T07:49:27.152Z,1004.91
2017-04-15T07:50:27.125Z,1004.94
2017-04-15T07:51:27.105Z,1004.93
2017-04-15T07:52:27.093Z,1004.95
2017-04-15T07:53:27.064Z,1004.97
2017-04-15T07:54:27.042Z,1004.95
2017-04-15T07:55:27.020Z,1004.97
2017-04-15T07:56:27.000Z,1004.99
2017-04-15T07:57:26.980Z,1004.98
2017-04-15T07:58:26.961Z,1004.98
2017-04-15T07:59:26.943Z,1005
2017-04-15T08:00:26.919Z,1005.06
2017-04-15T08:01:26.907Z,1005.09
2017-04-15T08:02:26.876Z,1005.09
2017-04-15T08:03:26.961Z,1005.11
2017-04-15T08:04:26.841Z,1005.08
2017-04-15T08:05:26.822Z,1005.09
2017-04-15T08:06:26.804Z,1005.13
2017-04-15T08:07:26.777Z,1005.15
2017-04-15T08:08:26.768Z,1005.12
2017-04-15T08:09:26.737Z,1005.14
2017-04-15T08:10:26.722Z,1005.19
2017-04-15T08:11:26.698Z,1005.2
2017-04-15T08:12:26.675Z,1005.21
2017-04-15T08:13:26.666Z,1005.23
2017-04-15T08:14:26.644Z,1005.19
2017-04-15T08:15:26.621Z,1005.14
2017-04-15T08:16:26.605Z,1005.17
2017-04-15T08:17:26.582Z,1005.12
2017-04-15T08:18:26.662Z,1005.19
2017-04-15T08:19:26.541Z,1005.11
2017-04-15T08:20:26.526Z,1005.19
2017-04-15T08:21:26.501Z,1005.12
2017-04-15T08:22:26.495Z,1005.16
2017-04-15T08:23:26.461Z,1005.12
2017-04-15T08:24:26.441Z,1005.19
2017-04-15T08:25:26.420Z,1005.21
2017-04-15T08:26:26.404Z,1005.15
2017-04-15T08:27:26.384Z,1005.09
2017-04-15T08:28:26.361Z,1005.11
2017-04-15T08:29:26.341Z,1005.15
2017-04-15T08:30:26.324Z,1005.2
2017-04-15T08:31:26.310Z,1005.25
2017-04-15T08:32:26.283Z,1005.19
2017-04-15T08:33:26.263Z,1005.19
2017-04-15T08:34:26.248Z,1005.17
2017-04-15T08:35:26.224Z,1005.15
2017-04-15T08:36:26.208Z,1005.21
2017-04-15T08:37:26.206Z,1005.17
2017-04-15T08:38:26.169Z,1005.2
2017-04-15T08:39:26.146Z,1005.25
2017-04-15T08:40:26.128Z,1005.21
2017-04-15T08:41:26.111Z,1005.17
2017-04-15T08:42:26.086Z,1005.2
2017-04-15T08:43:26.173Z,1005.19
2017-04-15T08:44:26.052Z,1005.18
2017-04-15T08:45:26.037Z,1005.23
2017-04-15T08:46:26.011Z,1005.26
2017-04-15T08:47:25.990Z,1005.23
2017-04-15T08:48:25.980Z,1005.3
2017-04-15T08:49:25.952Z,1005.34
2017-04-15T08:50:25.932Z,1005.32
2017-04-15T08:51:25.911Z,1005.4
2017-04-15T08:52:25.900Z,1005.33
2017-04-15T08:53:25.873Z,1005.41
2017-04-15T08:54:25.861Z,1005.35
2017-04-15T08:55:25.838Z,1005.35
2017-04-15T08:56:25.821Z,1005.42
2017-04-15T08:57:25.802Z,1005.44
2017-04-15T08:58:25.776Z,1005.42
2017-04-15T08:59:25.763Z,1005.4
2017-04-15T09:00:25.744Z,1005.41
2017-04-15T09:01:25.732Z,1005.47
2017-04-15T09:02:25.712Z,1005.41
2017-04-15T09:03:25.692Z,1005.45
2017-04-15T09:04:25.674Z,1005.48
2017-04-15T09:05:25.652Z,1005.49
2017-04-15T09:06:25.689Z,1005.47
2017-04-15T09:07:25.620Z,1005.45
2017-04-15T09:08:25.599Z,1005.48
2017-04-15T09:09:25.583Z,1005.51
2017-04-15T09:10:25.562Z,1005.53
2017-04-15T09:11:25.543Z,1005.49
2017-04-15T09:12:25.530Z,1005.49
2017-04-15T09:13:25.503Z,1005.51
2017-04-15T09:14:25.491Z,1005.48
2017-04-15T09:15:25.470Z,1005.5
2017-04-15T09:16:25.452Z,1005.44
2017-04-15T09:17:25.428Z,1005.45
2017-04-15T09:18:25.415Z,1005.52
2017-04-15T09:19:25.393Z,1005.48
2017-04-15T09:20:25.380Z,1005.48
2017-04-15T09:21:25.361Z,1005.47
2017-04-15T09:22:25.334Z,1005.49
2017-04-15T09:23:25.333Z,1005.48
2017-04-15T09:24:25.302Z,1005.51
2017-04-15T09:25:25.285Z,1005.45
2017-04-15T09:26:25.261Z,1005.49
2017-04-15T09:27:25.249Z,1005.48
2017-04-15T09:28:25.225Z,1005.51
2017-04-15T09:29:25.206Z,1005.58
2017-04-15T09:30:25.192Z,1005.58
2017-04-15T09:31:25.174Z,1005.54
2017-04-15T09:32:25.151Z,1005.54
2017-04-15T09:33:25.134Z,1005.56
2017-04-15T09:34:25.112Z,1005.58
2017-04-15T09:35:25.093Z,1005.57
2017-04-15T09:36:25.078Z,1005.54
2017-04-15T09:37:25.057Z,1005.55
2017-04-15T09:38:25.042Z,1005.61
2017-04-15T09:39:25.021Z,1005.58
2017-04-15T09:40:25.003Z,1005.56
2017-04-15T09:41:24.984Z,1005.57
2017-04-15T09:42:24.962Z,1005.6
2017-04-15T09:43:24.943Z,1005.63
2017-04-15T09:44:24.931Z,1005.6
2017-04-15T09:45:24.907Z,1005.57
2017-04-15T09:46:24.892Z,1005.6
2017-04-15T09:47:24.869Z,1005.65
2017-04-15T09:48:24.852Z,1005.65
2017-04-15T09:49:24.834Z,1005.59
2017-04-15T09:50:24.813Z,1005.68
2017-04-15T09:51:24.798Z,1005.64
2017-04-15T09:52:24.777Z,1005.73
2017-04-15T09:53:24.760Z,1005.7
2017-04-15T09:54:24.737Z,1005.69
2017-04-15T09:55:24.722Z,1005.68
2017-04-15T09:56:24.702Z,1005.73
2017-04-15T09:57:24.682Z,1005.7
2017-04-15T09:58:24.681Z,1005.69
2017-04-15T09:59:24.646Z,1005.66
2017-04-15T10:00:24.634Z,1005.75
2017-04-15T10:01:24.608Z,1005.71
2017-04-15T10:02:24.591Z,1005.69
2017-04-15T10:03:24.569Z,1005.74
2017-04-15T10:04:24.553Z,1005.81
2017-04-15T10:05:24.534Z,1005.72
2017-04-15T10:06:24.517Z,1005.67
2017-04-15T10:07:24.492Z,1005.67
2017-04-15T10:08:24.476Z,1005.69
2017-04-15T10:09:24.457Z,1005.74
2017-04-15T10:10:24.444Z,1005.7
2017-04-15T10:11:24.419Z,1005.73
2017-04-15T10:12:24.403Z,1005.79
2017-04-15T10:13:24.382Z,1005.64
2017-04-15T10:14:24.365Z,1005.71
2017-04-15T10:15:24.343Z,1005.74
2017-04-15T10:16:24.324Z,1005.78
2017-04-15T10:17:24.313Z,1005.73
2017-04-15T10:18:24.286Z,1005.78
2017-04-15T10:19:24.263Z,1005.78
2017-04-15T10:20:24.249Z,1005.8
2017-04-15T10:21:24.230Z,1005.81
2017-04-15T10:22:24.223Z,1005.81
2017-04-15T10:23:24.195Z,1005.88
2017-04-15T10:24:24.172Z,1005.81
2017-04-15T10:25:24.150Z,1005.81
2017-04-15T10:26:24.135Z,1005.82
2017-04-15T10:27:24.113Z,1005.84
2017-04-15T10:28:24.096Z,1005.81
2017-04-15T10:29:24.076Z,1005.82
2017-04-15T10:30:24.055Z,1005.8
2017-04-15T10:31:24.033Z,1005.84
2017-04-15T10:32:24.022Z,1005.82
2017-04-15T10:33:23.992Z,1005.8
2017-04-15T10:34:23.979Z,1005.86
2017-04-15T10:35:23.965Z,1005.81
2017-04-15T10:36:23.936Z,1005.75
2017-04-15T10:37:23.923Z,1005.74
2017-04-15T10:38:23.901Z,1005.77
2017-04-15T10:39:23.881Z,1005.81
2017-04-15T10:40:23.864Z,1005.8
2017-04-15T10:41:23.842Z,1005.83
2017-04-15T10:42:23.835Z,1005.77
2017-04-15T10:43:23.813Z,1005.75
2017-04-15T10:44:23.783Z,1005.75
2017-04-15T10:45:23.770Z,1005.77
2017-04-15T10:46:23.748Z,1005.81
2017-04-15T10:47:23.727Z,1005.75
2017-04-15T10:48:23.712Z,1005.72
2017-04-15T10:49:23.694Z,1005.77
2017-04-15T10:50:23.670Z,1005.79
2017-04-15T10:51:23.652Z,1005.86
2017-04-15T10:52:23.639Z,1005.77
2017-04-15T10:53:23.615Z,1005.76
2017-04-15T10:54:23.606Z,1005.78
2017-04-15T10:55:23.581Z,1005.78
2017-04-15T10:56:23.567Z,1005.77
2017-04-15T10:57:23.551Z,1005.75
2017-04-15T10:58:23.521Z,1005.78
2017-04-15T10:59:23.502Z,1005.88
2017-04-15T11:00:23.483Z,1005.74
2017-04-15T11:01:23.469Z,1005.73
2017-04-15T11:02:23.450Z,1005.69
2017-04-15T11:03:23.432Z,1005.67
2017-04-15T11:04:23.410Z,1005.75
2017-04-15T11:05:23.392Z,1005.69
2017-04-15T11:06:23.375Z,1005.68
2017-04-15T11:07:23.361Z,1005.73
2017-04-15T11:08:23.341Z,1005.73
2017-04-15T11:09:23.324Z,1005.73
2017-04-15T11:10:23.298Z,1005.82
2017-04-15T11:11:23.282Z,1005.82
2017-04-15T11:12:23.264Z,1005.78
2017-04-15T11:13:23.253Z,1005.77
2017-04-15T11:14:23.228Z,1005.8
2017-04-15T11:15:23.210Z,1005.76
2017-04-15T11:16:23.190Z,1005.81
2017-04-15T11:17:23.168Z,1005.79
2017-04-15T11:18:23.153Z,1005.82
2017-04-15T11:19:23.144Z,1005.88
2017-04-15T11:20:23.124Z,1005.89
2017-04-15T11:21:23.096Z,1005.92
2017-04-15T11:22:23.083Z,1005.87
2017-04-15T11:23:23.070Z,1005.91
2017-04-15T11:24:23.042Z,1005.89
2017-04-15T11:25:23.024Z,1005.86
2017-04-15T11:26:23.008Z,1005.91
2017-04-15T11:27:22.994Z,1005.81
2017-04-15T11:28:22.980Z,1005.92
2017-04-15T11:29:22.953Z,1005.92
2017-04-15T11:30:22.933Z,1005.92
2017-04-15T11:31:22.913Z,1005.93
2017-04-15T11:32:22.904Z,1005.94
2017-04-15T11:33:22.880Z,1005.94
2017-04-15T11:34:22.862Z,1005.93
2017-04-15T11:35:22.846Z,1006.01
2017-04-15T11:36:22.825Z,1005.92
2017-04-15T11:37:22.802Z,1006.03
2017-04-15T11:38:22.782Z,1005.98
2017-04-15T11:39:22.762Z,1005.98
2017-04-15T11:40:22.747Z,1005.94
2017-04-15T11:41:22.734Z,1006.09
2017-04-15T11:42:22.713Z,1005.98
2017-04-15T11:43:22.691Z,1006.02
2017-04-15T11:44:22.677Z,1006.01
2017-04-15T11:45:22.652Z,1005.97
2017-04-15T11:46:22.632Z,1006.03
2017-04-15T11:47:22.618Z,1006.01
2017-04-15T11:48:22.620Z,1006.01
2017-04-15T11:49:22.584Z,1006.05
2017-04-15T11:50:22.560Z,1006.1
2017-04-15T11:51:22.542Z,1006.1
2017-04-15T11:52:22.526Z,1006.12
2017-04-15T11:53:22.504Z,1006.07
2017-04-15T11:54:22.485Z,1006.1
2017-04-15T11:55:22.468Z,1006.04
2017-04-15T11:56:22.452Z,1006.09
2017-04-15T11:57:22.434Z,1006.17
2017-04-15T11:58:22.422Z,1006.12
2017-04-15T11:59:22.400Z,1005.98
2017-04-15T12:00:22.382Z,1005.98
2017-04-15T12:01:22.365Z,1005.91
2017-04-15T12:02:22.353Z,1006.03
2017-04-15T12:03:22.332Z,1005.96
2017-04-15T12:04:22.314Z,1006.06
2017-04-15T12:05:22.294Z,1006.03
2017-04-15T12:06:22.275Z,1006.06
2017-04-15T12:07:22.262Z,1005.92
2017-04-15T12:08:22.250Z,1006.08